sensor_id;sensor_type;location;lat;lon;timestamp;pressure;altitude;pressure_sealevel;temperature;humidity
59419;BME280;45224;50.904;6.038;2022-07-23T00:01:07;100065.78;;;19.16;77.82
59419;BME280;45224;50.904;6.038;2022-07-23T00:02:37;100074.56;;;19.15;77.93
59419;BME280;45224;50.904;6.038;2022-07-23T00:04:08;100077.19;;;19.15;77.96
59419;BME280;45224;50.904;6.038;2022-07-23T00:05:38;100062.38;;;19.14;77.97
59419;BME280;45224;50.904;6.038;2022-07-23T00:07:09;100072.75;;;19.18;77.86
59419;BME280;45224;50.904;6.038;2022-07-23T00:08:39;100074.47;;;19.19;77.75
59419;BME280;45224;50.904;6.038;2022-07-23T00:10:10;100071.81;;;19.20;77.54
59419;BME280;45224;50.904;6.038;2022-07-23T00:11:40;100073.59;;;19.18;77.41
59419;BME280;45224;50.904;6.038;2022-07-23T00:13:10;100067.59;;;19.14;77.89
59419;BME280;45224;50.904;6.038;2022-07-23T00:14:41;100065.16;;;19.08;77.76
59419;BME280;45224;50.904;6.038;2022-07-23T00:16:11;100073.41;;;18.96;78.50
59419;BME280;45224;50.904;6.038;2022-07-23T00:17:42;100078.66;;;18.96;78.74
59419;BME280;45224;50.904;6.038;2022-07-23T00:19:12;100072.50;;;18.97;78.41
59419;BME280;45224;50.904;6.038;2022-07-23T00:20:43;100065.59;;;18.94;78.13
59419;BME280;45224;50.904;6.038;2022-07-23T00:22:13;100073.41;;;18.96;78.19
59419;BME280;45224;50.904;6.038;2022-07-23T00:23:44;100077.78;;;18.95;78.15
59419;BME280;45224;50.904;6.038;2022-07-23T00:25:14;100077.78;;;18.95;78.01
59419;BME280;45224;50.904;6.038;2022-07-23T00:26:45;100073.59;;;18.90;78.11
59419;BME280;45224;50.904;6.038;2022-07-23T00:28:15;100080.66;;;18.88;78.21
59419;BME280;45224;50.904;6.038;2022-07-23T00:29:46;100071.25;;;18.79;78.83
59419;BME280;45224;50.904;6.038;2022-07-23T00:31:16;100078.25;;;18.78;78.83
59419;BME280;45224;50.904;6.038;2022-07-23T00:32:54;100070.56;;;18.72;79.05
59419;BME280;45224;50.904;6.038;2022-07-23T00:34:24;100070.66;;;18.69;79.01
59419;BME280;45224;50.904;6.038;2022-07-23T00:35:55;100075.06;;;18.69;79.45
59419;BME280;45224;50.904;6.038;2022-07-23T00:37:25;100076.16;;;18.60;79.63
59419;BME280;45224;50.904;6.038;2022-07-23T00:38:56;100078.97;;;18.54;79.89
59419;BME280;45224;50.904;6.038;2022-07-23T00:40:27;100070.25;;;18.53;79.69
59419;BME280;45224;50.904;6.038;2022-07-23T00:41:58;100084.38;;;18.48;80.30
59419;BME280;45224;50.904;6.038;2022-07-23T00:43:28;100074.88;;;18.43;80.51
59419;BME280;45224;50.904;6.038;2022-07-23T00:44:59;100081.13;;;18.39;80.75
59419;BME280;45224;50.904;6.038;2022-07-23T00:46:29;100081.09;;;18.41;80.88
59419;BME280;45224;50.904;6.038;2022-07-23T00:48:00;100080.19;;;18.40;80.76
59419;BME280;45224;50.904;6.038;2022-07-23T00:49:31;100078.59;;;18.36;80.57
59419;BME280;45224;50.904;6.038;2022-07-23T00:51:02;100078.59;;;18.36;80.85
59419;BME280;45224;50.904;6.038;2022-07-23T00:52:33;100077.78;;;18.33;80.93
59419;BME280;45224;50.904;6.038;2022-07-23T00:54:04;100080.38;;;18.34;80.94
59419;BME280;45224;50.904;6.038;2022-07-23T00:55:34;100076.13;;;18.30;81.11
59419;BME280;45224;50.904;6.038;2022-07-23T00:57:05;100087.50;;;18.29;81.19
59419;BME280;45224;50.904;6.038;2022-07-23T00:58:36;100087.53;;;18.28;81.39
59419;BME280;45224;50.904;6.038;2022-07-23T01:00:09;100085.78;;;18.28;80.99
59419;BME280;45224;50.904;6.038;2022-07-23T01:01:41;100084.03;;;18.29;80.99
59419;BME280;45224;50.904;6.038;2022-07-23T01:03:14;100081.47;;;18.25;80.77
59419;BME280;45224;50.904;6.038;2022-07-23T01:04:44;100075.44;;;18.23;80.94
59419;BME280;45224;50.904;6.038;2022-07-23T01:06:15;100073.75;;;18.21;81.47
59419;BME280;45224;50.904;6.038;2022-07-23T01:07:46;100082.44;;;18.21;81.28
59419;BME280;45224;50.904;6.038;2022-07-23T01:09:16;100082.56;;;18.18;81.63
59419;BME280;45224;50.904;6.038;2022-07-23T01:10:48;100075.63;;;18.16;81.86
59419;BME280;45224;50.904;6.038;2022-07-23T01:12:19;100084.31;;;18.18;81.66
59419;BME280;45224;50.904;6.038;2022-07-23T01:13:49;100079.94;;;18.18;81.60
59419;BME280;45224;50.904;6.038;2022-07-23T01:15:20;100075.63;;;18.16;81.31
59419;BME280;45224;50.904;6.038;2022-07-23T01:16:51;100076.44;;;18.18;81.68
59419;BME280;45224;50.904;6.038;2022-07-23T01:18:22;100073.03;;;18.16;81.85
59419;BME280;45224;50.904;6.038;2022-07-23T01:19:52;100072.25;;;18.12;82.14
59419;BME280;45224;50.904;6.038;2022-07-23T01:21:23;100069.72;;;18.09;81.94
59419;BME280;45224;50.904;6.038;2022-07-23T01:22:54;100072.38;;;18.08;82.89
59419;BME280;45224;50.904;6.038;2022-07-23T01:24:25;100068.09;;;18.03;82.14
59419;BME280;45224;50.904;6.038;2022-07-23T01:26:05;100069.78;;;18.06;82.07
59419;BME280;45224;50.904;6.038;2022-07-23T01:27:36;100063.72;;;18.05;82.08
59419;BME280;45224;50.904;6.038;2022-07-23T01:29:08;100060.25;;;18.03;82.58
59419;BME280;45224;50.904;6.038;2022-07-23T01:30:39;100056.84;;;18.01;82.41
59419;BME280;45224;50.904;6.038;2022-07-23T01:32:11;100046.44;;;17.98;82.46
59419;BME280;45224;50.904;6.038;2022-07-23T01:33:42;100051.69;;;17.98;82.70
59419;BME280;45224;50.904;6.038;2022-07-23T01:35:13;100050.06;;;17.94;82.73
59419;BME280;45224;50.904;6.038;2022-07-23T01:36:43;100054.38;;;17.95;82.84
59419;BME280;45224;50.904;6.038;2022-07-23T01:38:15;100051.72;;;17.97;82.80
59419;BME280;45224;50.904;6.038;2022-07-23T01:39:46;100055.28;;;17.94;83.72
59419;BME280;45224;50.904;6.038;2022-07-23T01:41:18;100046.56;;;17.94;82.63
59419;BME280;45224;50.904;6.038;2022-07-23T01:42:48;100051.69;;;17.98;82.58
59419;BME280;45224;50.904;6.038;2022-07-23T01:44:20;100050.78;;;17.99;82.60
59419;BME280;45224;50.904;6.038;2022-07-23T01:45:51;100051.78;;;17.94;83.04
59419;BME280;45224;50.904;6.038;2022-07-23T01:47:21;100049.41;;;17.84;83.92
59419;BME280;45224;50.904;6.038;2022-07-23T01:48:55;100044.09;;;17.87;83.47
59419;BME280;45224;50.904;6.038;2022-07-23T01:50:46;100041.84;;;17.74;84.98
59419;BME280;45224;50.904;6.038;2022-07-23T01:52:37;100029.16;;;17.57;86.16
59419;BME280;45224;50.904;6.038;2022-07-23T01:54:07;100042.19;;;17.58;86.22
59419;BME280;45224;50.904;6.038;2022-07-23T01:55:38;100039.56;;;17.60;85.39
59419;BME280;45224;50.904;6.038;2022-07-23T01:57:09;100040.44;;;17.60;85.20
59419;BME280;45224;50.904;6.038;2022-07-23T01:58:40;100044.84;;;17.57;86.25
59419;BME280;45224;50.904;6.038;2022-07-23T02:00:11;100043.19;;;17.54;85.63
59419;BME280;45224;50.904;6.038;2022-07-23T02:01:49;100048.25;;;17.62;84.88
59419;BME280;45224;50.904;6.038;2022-07-23T02:03:23;100035.97;;;17.64;84.44
59419;BME280;45224;50.904;6.038;2022-07-23T02:04:54;100038.56;;;17.65;84.27
59419;BME280;45224;50.904;6.038;2022-07-23T02:06:29;100042.88;;;17.66;84.04
59419;BME280;45224;50.904;6.038;2022-07-23T02:08:00;100042.06;;;17.64;84.20
59419;BME280;45224;50.904;6.038;2022-07-23T02:09:31;100044.78;;;17.60;84.41
59419;BME280;45224;50.904;6.038;2022-07-23T02:11:01;100049.13;;;17.61;84.50
59419;BME280;45224;50.904;6.038;2022-07-23T02:12:32;100047.34;;;17.61;84.17
59419;BME280;45224;50.904;6.038;2022-07-23T02:14:02;100040.31;;;17.63;84.06
59419;BME280;45224;50.904;6.038;2022-07-23T02:15:33;100045.63;;;17.62;84.15
59419;BME280;45224;50.904;6.038;2022-07-23T02:17:04;100038.00;;;17.52;84.68
59419;BME280;45224;50.904;6.038;2022-07-23T02:18:34;100041.47;;;17.53;84.85
59419;BME280;45224;50.904;6.038;2022-07-23T02:20:06;100034.69;;;17.46;85.01
59419;BME280;45224;50.904;6.038;2022-07-23T02:21:36;100039.13;;;17.41;85.93
59419;BME280;45224;50.904;6.038;2022-07-23T02:23:07;100037.44;;;17.40;85.29
59419;BME280;45224;50.904;6.038;2022-07-23T02:24:38;100040.22;;;17.32;86.44
59419;BME280;45224;50.904;6.038;2022-07-23T02:26:08;100043.94;;;17.23;87.30
59419;BME280;45224;50.904;6.038;2022-07-23T02:27:41;100043.91;;;17.25;87.02
59419;BME280;45224;50.904;6.038;2022-07-23T02:29:11;100037.78;;;17.24;86.84
59419;BME280;45224;50.904;6.038;2022-07-23T02:30:42;100040.41;;;17.24;86.67
59419;BME280;45224;50.904;6.038;2022-07-23T02:32:13;100046.56;;;17.22;88.12
59419;BME280;45224;50.904;6.038;2022-07-23T02:33:44;100044.81;;;17.22;87.00
59419;BME280;45224;50.904;6.038;2022-07-23T02:35:14;100043.00;;;17.24;86.59
59419;BME280;45224;50.904;6.038;2022-07-23T02:36:45;100039.56;;;17.24;86.56
59419;BME280;45224;50.904;6.038;2022-07-23T02:38:16;100042.16;;;17.24;86.20
59419;BME280;45224;50.904;6.038;2022-07-23T02:39:46;100049.09;;;17.26;86.30
59419;BME280;45224;50.904;6.038;2022-07-23T02:41:19;100048.25;;;17.24;86.03
59419;BME280;45224;50.904;6.038;2022-07-23T02:42:49;100049.22;;;17.20;86.89
59419;BME280;45224;50.904;6.038;2022-07-23T02:44:20;100043.22;;;17.17;86.67
59419;BME280;45224;50.904;6.038;2022-07-23T02:45:54;100051.00;;;17.18;86.68
59419;BME280;45224;50.904;6.038;2022-07-23T02:47:24;100050.91;;;17.21;86.31
59419;BME280;45224;50.904;6.038;2022-07-23T02:48:55;100046.81;;;17.11;88.17
59419;BME280;45224;50.904;6.038;2022-07-23T02:50:25;100046.19;;;17.00;88.96
59419;BME280;45224;50.904;6.038;2022-07-23T02:51:59;100053.19;;;16.99;88.61
59419;BME280;45224;50.904;6.038;2022-07-23T02:53:30;100050.75;;;16.91;89.24
59419;BME280;45224;50.904;6.038;2022-07-23T02:55:01;100046.31;;;16.93;89.19
59419;BME280;45224;50.904;6.038;2022-07-23T02:56:31;100044.56;;;16.94;88.51
59419;BME280;45224;50.904;6.038;2022-07-23T02:58:02;100042.81;;;16.96;87.99
59419;BME280;45224;50.904;6.038;2022-07-23T02:59:32;100048.88;;;16.96;88.19
59419;BME280;45224;50.904;6.038;2022-07-23T03:01:03;100047.25;;;16.92;88.33
59419;BME280;45224;50.904;6.038;2022-07-23T03:02:34;100052.53;;;16.89;88.34
59419;BME280;45224;50.904;6.038;2022-07-23T03:04:04;100049.00;;;16.90;88.43
59419;BME280;45224;50.904;6.038;2022-07-23T03:05:35;100050.88;;;16.85;89.30
59419;BME280;45224;50.904;6.038;2022-07-23T03:07:05;100050.00;;;16.83;89.46
59419;BME280;45224;50.904;6.038;2022-07-23T03:08:36;100052.59;;;16.86;88.87
59419;BME280;45224;50.904;6.038;2022-07-23T03:10:06;100051.75;;;16.83;88.53
59419;BME280;45224;50.904;6.038;2022-07-23T03:11:37;100048.31;;;16.80;89.23
59419;BME280;45224;50.904;6.038;2022-07-23T03:13:07;100053.50;;;16.82;88.83
59419;BME280;45224;50.904;6.038;2022-07-23T03:14:39;100054.41;;;16.81;89.51
59419;BME280;45224;50.904;6.038;2022-07-23T03:16:10;100058.72;;;16.82;88.38
59419;BME280;45224;50.904;6.038;2022-07-23T03:17:41;100056.97;;;16.83;88.19
59419;BME280;45224;50.904;6.038;2022-07-23T03:19:11;100052.63;;;16.83;88.20
59419;BME280;45224;50.904;6.038;2022-07-23T03:20:42;100051.81;;;16.81;88.09
59419;BME280;45224;50.904;6.038;2022-07-23T03:22:13;100053.50;;;16.82;88.60
59419;BME280;45224;50.904;6.038;2022-07-23T03:23:44;100057.03;;;16.81;87.97
59419;BME280;45224;50.904;6.038;2022-07-23T03:25:14;100061.31;;;16.85;87.54
59419;BME280;45224;50.904;6.038;2022-07-23T03:26:44;100057.91;;;16.80;87.76
59419;BME280;45224;50.904;6.038;2022-07-23T03:28:17;100057.91;;;16.80;87.58
59419;BME280;45224;50.904;6.038;2022-07-23T03:29:50;100052.69;;;16.80;87.56
59419;BME280;45224;50.904;6.038;2022-07-23T03:31:21;100054.41;;;16.81;87.25
59419;BME280;45224;50.904;6.038;2022-07-23T03:32:51;100051.84;;;16.79;87.69
59419;BME280;45224;50.904;6.038;2022-07-23T03:34:22;100049.19;;;16.81;87.23
59419;BME280;45224;50.904;6.038;2022-07-23T03:35:53;100051.81;;;16.81;87.20
59419;BME280;45224;50.904;6.038;2022-07-23T03:37:29;100055.28;;;16.80;87.55
59419;BME280;45224;50.904;6.038;2022-07-23T03:39:02;100046.63;;;16.79;87.65
59419;BME280;45224;50.904;6.038;2022-07-23T03:40:34;100050.97;;;16.79;87.11
59419;BME280;45224;50.904;6.038;2022-07-23T03:42:04;100057.84;;;16.83;86.87
59419;BME280;45224;50.904;6.038;2022-07-23T03:43:35;100051.81;;;16.81;86.68
59419;BME280;45224;50.904;6.038;2022-07-23T03:45:05;100055.28;;;16.82;86.58
59419;BME280;45224;50.904;6.038;2022-07-23T03:46:36;100055.28;;;16.82;86.57
59419;BME280;45224;50.904;6.038;2022-07-23T03:48:06;100050.97;;;16.79;86.52
59419;BME280;45224;50.904;6.038;2022-07-23T03:49:37;100061.38;;;16.80;86.56
59419;BME280;45224;50.904;6.038;2022-07-23T03:51:07;100051.03;;;16.76;86.39
59419;BME280;45224;50.904;6.038;2022-07-23T03:52:38;100057.09;;;16.78;86.37
59419;BME280;45224;50.904;6.038;2022-07-23T03:54:09;100057.94;;;16.78;86.55
59419;BME280;45224;50.904;6.038;2022-07-23T03:55:39;100056.25;;;16.76;86.80
59419;BME280;45224;50.904;6.038;2022-07-23T03:57:10;100055.41;;;16.74;87.03
59419;BME280;45224;50.904;6.038;2022-07-23T03:58:40;100065.09;;;16.69;87.60
59419;BME280;45224;50.904;6.038;2022-07-23T04:00:11;100066.84;;;16.70;87.57
59419;BME280;45224;50.904;6.038;2022-07-23T04:01:47;100061.63;;;16.70;87.67
59419;BME280;45224;50.904;6.038;2022-07-23T04:03:17;100065.09;;;16.69;87.44
59419;BME280;45224;50.904;6.038;2022-07-23T04:04:48;100069.47;;;16.68;87.44
59419;BME280;45224;50.904;6.038;2022-07-23T04:06:20;100060.00;;;16.63;88.14
59419;BME280;45224;50.904;6.038;2022-07-23T04:07:51;100063.44;;;16.65;87.67
59419;BME280;45224;50.904;6.038;2022-07-23T04:09:22;100073.03;;;16.64;87.64
59419;BME280;45224;50.904;6.038;2022-07-23T04:10:53;100071.31;;;16.61;87.85
59419;BME280;45224;50.904;6.038;2022-07-23T04:12:25;100070.47;;;16.61;87.83
59419;BME280;45224;50.904;6.038;2022-07-23T04:13:57;100075.66;;;16.63;87.77
59419;BME280;45224;50.904;6.038;2022-07-23T04:15:28;100073.06;;;16.63;87.94
59419;BME280;45224;50.904;6.038;2022-07-23T04:16:59;100075.72;;;16.59;88.03
59419;BME280;45224;50.904;6.038;2022-07-23T04:18:30;100068.81;;;16.58;88.25
59419;BME280;45224;50.904;6.038;2022-07-23T04:20:11;100067.94;;;16.58;88.38
59419;BME280;45224;50.904;6.038;2022-07-23T04:21:52;100078.34;;;16.59;88.29
59419;BME280;45224;50.904;6.038;2022-07-23T04:23:23;100078.47;;;16.53;89.05
59419;BME280;45224;50.904;6.038;2022-07-23T04:24:54;100075.84;;;16.53;88.98
59419;BME280;45224;50.904;6.038;2022-07-23T04:26:24;100077.53;;;16.57;88.98
59419;BME280;45224;50.904;6.038;2022-07-23T04:27:55;100073.94;;;16.61;88.56
59419;BME280;45224;50.904;6.038;2022-07-23T04:29:25;100080.84;;;16.66;88.41
59419;BME280;45224;50.904;6.038;2022-07-23T04:30:57;100071.28;;;16.63;88.42
59419;BME280;45224;50.904;6.038;2022-07-23T04:32:27;100086.09;;;16.63;89.31
59419;BME280;45224;50.904;6.038;2022-07-23T04:33:58;100088.75;;;16.61;89.09
59419;BME280;45224;50.904;6.038;2022-07-23T04:35:28;100094.75;;;16.65;88.70
59419;BME280;45224;50.904;6.038;2022-07-23T04:37:08;100098.22;;;16.67;88.51
59419;BME280;45224;50.904;6.038;2022-07-23T04:38:40;100105.16;;;16.68;88.35
59419;BME280;45224;50.904;6.038;2022-07-23T04:40:11;100099.06;;;16.67;89.50
59419;BME280;45224;50.904;6.038;2022-07-23T04:41:42;100108.69;;;16.65;89.55
59419;BME280;45224;50.904;6.038;2022-07-23T04:43:12;100114.94;;;16.56;91.05
59419;BME280;45224;50.904;6.038;2022-07-23T04:44:50;100103.84;;;16.45;91.99
59419;BME280;45224;50.904;6.038;2022-07-23T04:46:21;100120.16;;;16.56;91.40
59419;BME280;45224;50.904;6.038;2022-07-23T04:47:54;100102.69;;;16.60;91.04
59419;BME280;45224;50.904;6.038;2022-07-23T04:49:26;100102.63;;;16.63;90.39
59419;BME280;45224;50.904;6.038;2022-07-23T04:50:56;100098.16;;;16.70;90.20
59419;BME280;45224;50.904;6.038;2022-07-23T04:52:27;100103.22;;;16.76;90.18
59419;BME280;45224;50.904;6.038;2022-07-23T04:53:58;100113.63;;;16.79;89.83
59419;BME280;45224;50.904;6.038;2022-07-23T04:55:28;100105.75;;;16.80;89.64
59419;BME280;45224;50.904;6.038;2022-07-23T04:57:02;100111.84;;;16.81;90.13
59419;BME280;45224;50.904;6.038;2022-07-23T04:58:32;100114.50;;;16.79;90.81
59419;BME280;45224;50.904;6.038;2022-07-23T05:00:03;100111.75;;;16.84;90.08
59419;BME280;45224;50.904;6.038;2022-07-23T05:01:35;100114.28;;;16.90;89.90
59419;BME280;45224;50.904;6.038;2022-07-23T05:03:05;100101.28;;;16.87;90.47
59419;BME280;45224;50.904;6.038;2022-07-23T05:04:36;100110.88;;;16.87;90.60
59419;BME280;45224;50.904;6.038;2022-07-23T05:06:07;100104.84;;;16.83;90.67
59419;BME280;45224;50.904;6.038;2022-07-23T05:07:38;100111.75;;;16.84;90.72
59419;BME280;45224;50.904;6.038;2022-07-23T05:09:09;100112.81;;;16.77;91.79
59419;BME280;45224;50.904;6.038;2022-07-23T05:10:39;100110.31;;;16.71;92.65
59419;BME280;45224;50.904;6.038;2022-07-23T05:12:10;100114.53;;;16.78;92.01
59419;BME280;45224;50.904;6.038;2022-07-23T05:13:41;100115.41;;;16.77;92.46
59419;BME280;45224;50.904;6.038;2022-07-23T05:15:12;100112.88;;;16.72;93.14
59419;BME280;45224;50.904;6.038;2022-07-23T05:16:42;100117.16;;;16.78;92.37
59419;BME280;45224;50.904;6.038;2022-07-23T05:18:19;100113.53;;;16.85;91.78
59419;BME280;45224;50.904;6.038;2022-07-23T05:19:49;100115.97;;;16.94;91.06
59419;BME280;45224;50.904;6.038;2022-07-23T05:21:20;100122.72;;;17.03;90.70
59419;BME280;45224;50.904;6.038;2022-07-23T05:22:51;100122.59;;;17.09;90.33
59419;BME280;45224;50.904;6.038;2022-07-23T05:24:21;100125.19;;;17.11;91.00
59419;BME280;45224;50.904;6.038;2022-07-23T05:25:52;100129.56;;;17.10;91.40
59419;BME280;45224;50.904;6.038;2022-07-23T05:27:23;100125.13;;;17.14;90.83
59419;BME280;45224;50.904;6.038;2022-07-23T05:28:53;100123.25;;;17.19;90.20
59419;BME280;45224;50.904;6.038;2022-07-23T05:30:24;100130.91;;;17.28;89.63
59419;BME280;45224;50.904;6.038;2022-07-23T05:31:58;100129.06;;;17.32;89.66
59419;BME280;45224;50.904;6.038;2022-07-23T05:33:29;100122.88;;;17.38;89.30
59419;BME280;45224;50.904;6.038;2022-07-23T05:35:00;100133.66;;;17.22;90.95
59419;BME280;45224;50.904;6.038;2022-07-23T05:36:31;100140.31;;;17.36;89.95
59419;BME280;45224;50.904;6.038;2022-07-23T05:38:04;100133.50;;;17.28;91.04
59419;BME280;45224;50.904;6.038;2022-07-23T05:39:35;100137.00;;;17.27;90.97
59419;BME280;45224;50.904;6.038;2022-07-23T05:41:06;100135.94;;;17.38;89.68
59419;BME280;45224;50.904;6.038;2022-07-23T05:42:38;100148.78;;;17.47;89.73
59419;BME280;45224;50.904;6.038;2022-07-23T05:44:09;100139.97;;;17.51;89.69
59419;BME280;45224;50.904;6.038;2022-07-23T05:45:43;100135.63;;;17.50;90.26
59419;BME280;45224;50.904;6.038;2022-07-23T05:47:14;100138.13;;;17.56;89.76
59419;BME280;45224;50.904;6.038;2022-07-23T05:48:44;100142.56;;;17.52;91.03
59419;BME280;45224;50.904;6.038;2022-07-23T05:50:38;100152.44;;;17.40;92.01
59419;BME280;45224;50.904;6.038;2022-07-23T05:52:26;100148.78;;;17.47;92.26
59419;BME280;45224;50.904;6.038;2022-07-23T05:54:26;100155.53;;;17.57;90.82
59419;BME280;45224;50.904;6.038;2022-07-23T05:55:56;100147.06;;;17.46;92.19
59419;BME280;45224;50.904;6.038;2022-07-23T05:57:27;100149.44;;;17.55;91.25
59419;BME280;45224;50.904;6.038;2022-07-23T05:58:57;100150.00;;;17.69;90.61
59419;BME280;45224;50.904;6.038;2022-07-23T06:00:28;100151.59;;;17.77;90.38
59419;BME280;45224;50.904;6.038;2022-07-23T06:01:59;100151.25;;;17.53;93.04
59419;BME280;45224;50.904;6.038;2022-07-23T06:03:31;100152.13;;;17.52;93.55
59419;BME280;45224;50.904;6.038;2022-07-23T06:05:02;100156.16;;;17.67;92.67
59419;BME280;45224;50.904;6.038;2022-07-23T06:06:35;100159.41;;;17.78;92.09
59419;BME280;45224;50.904;6.038;2022-07-23T06:08:06;100158.31;;;17.87;91.34
59419;BME280;45224;50.904;6.038;2022-07-23T06:09:37;100154.50;;;18.00;91.59
59419;BME280;45224;50.904;6.038;2022-07-23T06:11:08;100146.59;;;18.03;91.76
59419;BME280;45224;50.904;6.038;2022-07-23T06:12:38;100151.44;;;18.19;90.30
59419;BME280;45224;50.904;6.038;2022-07-23T06:14:09;100145.41;;;18.17;90.34
59419;BME280;45224;50.904;6.038;2022-07-23T06:15:50;100156.16;;;18.04;89.57
59419;BME280;45224;50.904;6.038;2022-07-23T06:17:21;100149.13;;;18.06;90.34
59419;BME280;45224;50.904;6.038;2022-07-23T06:18:51;100150.72;;;18.14;89.91
59419;BME280;45224;50.904;6.038;2022-07-23T06:20:23;100151.34;;;18.23;89.20
59419;BME280;45224;50.904;6.038;2022-07-23T06:21:54;100155.38;;;18.35;88.12
59419;BME280;45224;50.904;6.038;2022-07-23T06:23:24;100149.81;;;18.48;87.60
59419;BME280;45224;50.904;6.038;2022-07-23T06:24:55;100153.00;;;18.59;87.22
59419;BME280;45224;50.904;6.038;2022-07-23T06:26:26;100150.41;;;18.59;86.77
59419;BME280;45224;50.904;6.038;2022-07-23T06:27:56;100158.09;;;18.65;87.02
59419;BME280;45224;50.904;6.038;2022-07-23T06:29:27;100157.13;;;18.68;86.83
59419;BME280;45224;50.904;6.038;2022-07-23T06:30:57;100154.13;;;18.82;85.71
59419;BME280;45224;50.904;6.038;2022-07-23T06:32:28;100160.69;;;18.98;85.13
59419;BME280;45224;50.904;6.038;2022-07-23T06:33:58;100156.00;;;19.09;85.02
59419;BME280;45224;50.904;6.038;2022-07-23T06:35:29;100157.25;;;18.96;83.85
59419;BME280;45224;50.904;6.038;2022-07-23T06:36:59;100155.97;;;18.78;83.50
59419;BME280;45224;50.904;6.038;2022-07-23T06:38:30;100158.44;;;18.83;83.72
59419;BME280;45224;50.904;6.038;2022-07-23T06:40:01;100148.47;;;18.97;83.40
59419;BME280;45224;50.904;6.038;2022-07-23T06:41:31;100161.16;;;19.12;83.33
59419;BME280;45224;50.904;6.038;2022-07-23T06:43:02;100150.63;;;19.14;82.11
59419;BME280;45224;50.904;6.038;2022-07-23T06:44:32;100161.69;;;19.24;82.17
59419;BME280;45224;50.904;6.038;2022-07-23T06:46:04;100159.78;;;19.29;81.81
59419;BME280;45224;50.904;6.038;2022-07-23T06:47:34;100169.31;;;19.31;80.43
59419;BME280;45224;50.904;6.038;2022-07-23T06:49:05;100164.66;;;19.41;80.37
59419;BME280;45224;50.904;6.038;2022-07-23T06:50:36;100168.78;;;19.48;80.45
59419;BME280;45224;50.904;6.038;2022-07-23T06:52:07;100167.63;;;19.57;80.31
59419;BME280;45224;50.904;6.038;2022-07-23T06:53:37;100170.84;;;19.67;79.74
59419;BME280;45224;50.904;6.038;2022-07-23T06:55:08;100170.59;;;19.75;79.77
59419;BME280;45224;50.904;6.038;2022-07-23T06:56:39;100170.38;;;19.82;77.28
59419;BME280;45224;50.904;6.038;2022-07-23T06:58:09;100169.03;;;19.69;77.69
59419;BME280;45224;50.904;6.038;2022-07-23T06:59:41;100169.94;;;19.68;78.46
59419;BME280;45224;50.904;6.038;2022-07-23T07:01:11;100168.41;;;19.89;77.99
59419;BME280;45224;50.904;6.038;2022-07-23T07:02:42;100161.66;;;19.82;76.90
59419;BME280;45224;50.904;6.038;2022-07-23T07:04:12;100171.69;;;19.96;77.17
59419;BME280;45224;50.904;6.038;2022-07-23T07:05:42;100178.28;;;20.09;76.17
59419;BME280;45224;50.904;6.038;2022-07-23T07:07:13;100179.88;;;20.13;76.20
59419;BME280;45224;50.904;6.038;2022-07-23T07:08:43;100175.19;;;20.23;75.80
59419;BME280;45224;50.904;6.038;2022-07-23T07:10:14;100175.81;;;20.30;74.77
59419;BME280;45224;50.904;6.038;2022-07-23T07:11:46;100175.63;;;20.36;74.45
59419;BME280;45224;50.904;6.038;2022-07-23T07:13:16;100182.16;;;20.49;74.86
59419;BME280;45224;50.904;6.038;2022-07-23T07:14:47;100177.56;;;20.56;74.77
59419;BME280;45224;50.904;6.038;2022-07-23T07:16:17;100185.28;;;20.35;76.01
59419;BME280;45224;50.904;6.038;2022-07-23T07:17:48;100179.41;;;20.52;74.97
59419;BME280;45224;50.904;6.038;2022-07-23T07:19:19;100187.72;;;20.67;74.99
59419;BME280;45224;50.904;6.038;2022-07-23T07:20:49;100184.88;;;20.73;74.51
59419;BME280;45224;50.904;6.038;2022-07-23T07:22:19;100187.97;;;20.84;74.28
59419;BME280;45224;50.904;6.038;2022-07-23T07:23:50;100192.63;;;21.01;74.09
59419;BME280;45224;50.904;6.038;2022-07-23T07:25:20;100193.78;;;20.69;72.67
59419;BME280;45224;50.904;6.038;2022-07-23T07:26:51;100194.25;;;20.80;72.78
59419;BME280;45224;50.904;6.038;2022-07-23T07:28:21;100197.72;;;21.06;72.89
59419;BME280;45224;50.904;6.038;2022-07-23T07:29:52;100195.75;;;20.87;71.51
59419;BME280;45224;50.904;6.038;2022-07-23T07:31:22;100200.31;;;20.82;72.10
59419;BME280;45224;50.904;6.038;2022-07-23T07:32:53;100199.09;;;20.91;71.54
59419;BME280;45224;50.904;6.038;2022-07-23T07:34:23;100194.69;;;20.68;72.62
59419;BME280;45224;50.904;6.038;2022-07-23T07:35:54;100194.47;;;20.97;71.87
59419;BME280;45224;50.904;6.038;2022-07-23T07:37:24;100195.16;;;21.26;71.28
59419;BME280;45224;50.904;6.038;2022-07-23T07:38:55;100191.97;;;21.18;70.63
59419;BME280;45224;50.904;6.038;2022-07-23T07:40:26;100195.41;;;21.20;71.34
59419;BME280;45224;50.904;6.038;2022-07-23T07:41:56;100198.50;;;21.08;71.50
59419;BME280;45224;50.904;6.038;2022-07-23T07:43:27;100191.84;;;21.45;70.61
59419;BME280;45224;50.904;6.038;2022-07-23T07:44:57;100193.72;;;21.41;67.44
59419;BME280;45224;50.904;6.038;2022-07-23T07:46:28;100197.06;;;21.23;69.84
59419;BME280;45224;50.904;6.038;2022-07-23T07:47:58;100207.63;;;21.45;70.39
59419;BME280;45224;50.904;6.038;2022-07-23T07:49:29;100202.72;;;21.59;69.28
59419;BME280;45224;50.904;6.038;2022-07-23T07:50:59;100200.72;;;21.66;68.56
59419;BME280;45224;50.904;6.038;2022-07-23T07:52:30;100208.91;;;21.58;67.28
59419;BME280;45224;50.904;6.038;2022-07-23T07:54:00;100205.69;;;21.74;68.58
59419;BME280;45224;50.904;6.038;2022-07-23T07:55:31;100214.09;;;21.60;66.41
59419;BME280;45224;50.904;6.038;2022-07-23T07:57:01;100208.31;;;21.74;66.64
59419;BME280;45224;50.904;6.038;2022-07-23T07:58:32;100209.19;;;22.17;66.38